Time;durP1;ratioP1;P1;durP2;ratioP2;P2;SDS_P1;SDS_P2;PMS_P1;PMS_P2;Temp;Humidity;BMP_temperature;BMP_pressure;BME280_temperature;BME280_humidity;BME280_pressure;Samples;Min_cycle;Max_cycle;Signal;HPM_P1;HPM_P2
2023/02/19 00:01:47;;;;;;;0.00;0.00;;;;;;;7.76;98.78;101196.91;6201931;23;20058;-77
2023/02/19 00:04:21;;;;;;;0.00;0.00;;;;;;;7.66;98.78;101196.63;6200511;23;20028;-76
2023/02/19 00:06:52;;;;;;;0.00;0.00;;;;;;;7.53;98.97;101185.91;6198831;23;20016;-77
2023/02/19 00:09:19;;;;;;;0.00;0.00;;;;;;;7.51;98.93;101188.84;6200024;23;20004;-78
2023/02/19 00:11:47;;;;;;;0.00;0.00;;;;;;;7.45;99.26;101193.31;6195882;23;20035;-76
2023/02/19 00:14:23;;;;;;;0.00;0.00;;;;;;;7.43;99.13;101198.16;6200793;23;20004;-75
2023/02/19 00:16:56;;;;;;;0.00;0.00;;;;;;;7.34;99.46;101199.47;6223960;23;20007;-76
2023/02/19 00:19:49;;;;;;;0.00;0.00;;;;;;;7.26;99.07;101202.53;6199885;23;20015;-76
2023/02/19 00:22:22;;;;;;;0.00;0.00;;;;;;;7.39;100.00;101235.03;6198169;23;20009;-73
2023/02/19 00:24:58;;;;;;;;;;;;;;;;;;;;;
2023/02/19 00:27:26;;;;;;;0.00;0.00;;;;;;;7.34;99.27;101226.69;6203456;23;20028;-74
2023/02/19 00:29:52;;;;;;;0.00;0.00;;;;;;;7.38;99.09;101227.09;6233546;23;19997;-75
2023/02/19 00:32:18;;;;;;;0.00;0.00;;;;;;;7.40;98.78;101235.84;6202199;23;20015;-74
2023/02/19 00:34:43;;;;;;;0.00;0.00;;;;;;;7.32;98.48;101229.63;6171062;23;20005;-73
2023/02/19 00:37:09;;;;;;;0.00;0.00;;;;;;;7.39;98.78;101229.59;6214465;23;20079;-74
2023/02/19 00:39:34;;;;;;;0.00;0.00;;;;;;;7.34;98.35;101232.13;6198898;23;20016;-74
2023/02/19 00:42:00;;;;;;;0.00;0.00;;;;;;;7.34;98.47;101240.31;6170248;23;20008;-75
2023/02/19 00:44:26;;;;;;;0.00;0.00;;;;;;;7.14;98.46;101211.41;6169557;23;20012;-75
2023/02/19 00:46:51;;;;;;;0.00;0.00;;;;;;;7.18;98.41;101219.13;6221429;23;20019;-75
2023/02/19 00:49:20;;;;;;;0.00;0.00;;;;;;;7.15;97.90;101223.13;6216470;23;20015;-74
2023/02/19 00:51:45;;;;;;;0.00;0.00;;;;;;;7.24;98.10;101242.69;6216375;23;20305;-73
2023/02/19 00:54:12;;;;;;;0.00;0.00;;;;;;;7.15;98.48;101237.56;6188977;23;20016;-74
2023/02/19 00:56:38;;;;;;;0.00;0.00;;;;;;;7.12;98.10;101246.16;6189911;23;20065;-74
2023/02/19 00:59:03;;;;;;;0.00;0.00;;;;;;;7.13;97.67;101249.72;6190249;23;20011;-74
2023/02/19 01:01:29;;;;;;;0.00;0.00;;;;;;;7.05;97.79;101250.81;6165741;23;20330;-75
2023/02/19 01:03:54;;;;;;;0.00;0.00;;;;;;;7.04;98.25;101262.75;6168313;23;20008;-81
2023/02/19 01:06:20;;;;;;;0.00;0.00;;;;;;;7.00;97.74;101275.13;6190037;23;20359;-73
2023/02/19 01:08:46;;;;;;;0.00;0.00;;;;;;;6.98;97.72;101261.75;6193217;23;19989;-75
2023/02/19 01:11:12;;;;;;;0.00;0.00;;;;;;;6.98;97.36;101258.22;6215927;23;19992;-76
2023/02/19 01:13:38;;;;;;;0.03;0.03;;;;;;;6.97;97.06;101248.38;6215884;23;20011;-75
2023/02/19 01:16:09;;;;;;;0.00;0.00;;;;;;;6.94;96.78;101259.72;6190173;23;20083;-75
2023/02/19 01:18:35;;;;;;;0.00;0.00;;;;;;;6.88;97.28;101249.69;6214048;23;19997;-75
2023/02/19 01:21:06;;;;;;;0.00;0.00;;;;;;;6.84;97.01;101264.81;6193712;23;20040;-75
2023/02/19 01:23:32;;;;;;;0.00;0.00;;;;;;;6.75;97.36;101262.34;6187565;23;20008;-75
2023/02/19 01:25:57;;;;;;;0.00;0.00;;;;;;;6.70;96.60;101264.91;6220530;23;20055;-75
2023/02/19 01:28:23;;;;;;;0.03;0.03;;;;;;;6.67;97.43;101257.16;6189196;23;20005;-74
2023/02/19 01:30:48;;;;;;;0.00;0.00;;;;;;;6.75;97.55;101264.25;6194321;23;20009;-75
2023/02/19 01:33:14;;;;;;;0.10;0.10;;;;;;;6.78;97.63;101267.34;6220700;22;19989;-75
2023/02/19 01:35:39;;;;;;;0.00;0.00;;;;;;;6.76;97.32;101255.88;6191217;23;20031;-76
2023/02/19 01:38:08;;;;;;;0.00;0.00;;;;;;;6.80;97.14;101270.69;6171207;23;20020;-75
2023/02/19 01:40:34;;;;;;;0.00;0.00;;;;;;;6.77;96.67;101254.78;6168495;23;20460;-76
2023/02/19 01:43:02;;;;;;;0.00;0.00;;;;;;;6.71;97.12;101261.13;6188765;23;20111;-75
2023/02/19 01:45:42;;;;;;;0.00;0.00;;;;;;;6.70;97.65;101264.06;6167658;23;20447;-74
2023/02/19 01:48:13;;;;;;;0.00;0.00;;;;;;;6.71;98.40;101273.88;6188821;23;20875;-74
2023/02/19 01:50:50;;;;;;;0.00;0.00;;;;;;;6.72;98.40;101273.66;6191400;23;20416;-75
2023/02/19 01:53:20;;;;;;;0.00;0.00;;;;;;;6.79;98.69;101274.44;6192365;23;20028;-75
2023/02/19 01:55:49;;;;;;;0.00;0.00;;;;;;;6.81;99.54;101271.50;6192906;23;20083;-74
2023/02/19 01:58:15;;;;;;;0.00;0.00;;;;;;;6.79;99.60;101279.88;6188551;23;20095;-74
2023/02/19 02:00:41;;;;;;;0.00;0.00;;;;;;;6.78;99.96;101289.09;6194625;23;20011;-74
2023/02/19 02:03:06;;;;;;;0.00;0.00;;;;;;;6.75;100.00;101289.53;6193769;23;20013;-74
2023/02/19 02:05:55;;;;;;;0.00;0.00;;;;;;;6.77;100.00;101287.41;6167931;23;20008;-74
2023/02/19 02:11:04;;;;;;;0.00;0.00;;;;;;;6.73;100.00;101302.53;6221421;23;20066;-74
2023/02/19 02:13:32;;;;;;;0.00;0.00;;;;;;;6.62;100.00;101295.06;6163885;23;20004;-74
2023/02/19 02:16:16;;;;;;;0.00;0.00;;;;;;;6.62;100.00;101295.06;6192286;23;19996;-75
2023/02/19 02:18:58;;;;;;;0.00;0.00;;;;;;;6.69;100.00;101305.88;6190995;23;20001;-75
2023/02/19 02:22:01;;;;;;;0.00;0.00;;;;;;;6.77;100.00;101302.91;6189903;23;20050;-74
2023/02/19 02:24:46;;;;;;;0.00;0.00;;;;;;;6.84;100.00;101297.44;6191476;23;20008;-75
2023/02/19 02:27:40;;;;;;;0.00;0.00;;;;;;;6.86;100.00;101295.31;6190304;23;19992;-73
2023/02/19 02:30:06;;;;;;;0.00;0.00;;;;;;;6.90;100.00;101296.53;6209367;23;20028;-75
2023/02/19 02:32:37;;;;;;;0.00;0.00;;;;;;;6.90;100.00;101293.84;6191579;23;20012;-75
2023/02/19 02:35:10;;;;;;;0.00;0.00;;;;;;;6.88;99.53;101293.19;6188830;23;20054;-74
2023/02/19 02:37:39;;;;;;;0.00;0.00;;;;;;;6.81;99.74;101304.97;6193534;23;20424;-75
2023/02/19 02:40:07;;;;;;;0.00;0.00;;;;;;;6.74;100.00;101311.50;6217484;23;20000;-75
2023/02/19 02:42:34;;;;;;;0.00;0.00;;;;;;;6.62;100.00;101303.22;6188939;23;20062;-76
2023/02/19 02:45:36;;;;;;;0.00;0.00;;;;;;;6.47;100.00;101304.34;6190562;23;20000;-75
2023/02/19 02:48:24;;;;;;;0.00;0.00;;;;;;;6.32;100.00;101302.94;6188651;23;20012;-76
2023/02/19 02:50:53;;;;;;;0.00;0.00;;;;;;;6.24;100.00;101304.03;6212612;23;20012;-75
2023/02/19 02:56:29;;;;;;;0.08;0.08;;;;;;;6.09;100.00;101302.41;6221643;23;20486;-75
2023/02/19 02:58:56;;;;;;;0.00;0.00;;;;;;;6.08;100.00;101300.75;6191710;23;20011;-74
2023/02/19 03:04:21;;;;;;;0.00;0.00;;;;;;;6.04;100.00;101302.22;6224660;23;20023;-74
2023/02/19 03:06:48;;;;;;;0.00;0.00;;;;;;;5.97;100.00;101306.81;6198766;23;20498;-75
2023/02/19 03:09:13;;;;;;;0.00;0.00;;;;;;;6.00;100.00;101303.72;6222127;23;20648;-75
2023/02/19 03:20:35;;;;;;;0.00;0.00;;;;;;;5.90;100.00;101325.84;6218525;23;20065;-74
2023/02/19 03:23:01;;;;;;;0.00;0.00;;;;;;;5.88;100.00;101321.66;6189491;23;20004;-75
2023/02/19 03:29:21;;;;;;;0.00;0.00;;;;;;;5.87;100.00;101320.84;6214617;23;20016;-75
2023/02/19 03:31:11;;;;;;;0.00;0.00;;;;;;;5.85;100.00;101322.91;6219730;23;20005;-76
2023/02/19 03:33:39;;;;;;;0.00;0.00;;;;;;;5.73;100.00;101317.31;6190406;23;20008;-74
2023/02/19 03:36:11;;;;;;;0.00;0.00;;;;;;;5.84;100.00;101331.28;6193318;23;20004;-75
2023/02/19 03:39:02;;;;;;;0.00;0.00;;;;;;;5.86;100.00;101345.47;6216493;23;20075;-75
2023/02/19 03:41:39;;;;;;;0.00;0.00;;;;;;;5.87;100.00;101358.84;6177189;23;20012;-74
2023/02/19 03:44:20;;;;;;;0.10;0.10;;;;;;;5.89;100.00;101350.47;6191910;23;20025;-74
2023/02/19 03:46:54;;;;;;;0.00;0.00;;;;;;;5.89;100.00;101348.59;6188554;23;20001;-74
2023/02/19 03:49:39;;;;;;;0.08;0.08;;;;;;;5.89;100.00;101339.63;6191575;23;20020;-74
2023/02/19 03:52:18;;;;;;;0.00;0.00;;;;;;;5.85;100.00;101349.22;6217351;23;20008;-74
2023/02/19 03:55:04;;;;;;;0.00;0.00;;;;;;;5.87;100.00;101366.13;6218871;23;20007;-74
2023/02/19 03:57:33;;;;;;;0.00;0.00;;;;;;;5.88;100.00;101370.53;6189769;23;20047;-73
2023/02/19 04:00:10;;;;;;;0.00;0.00;;;;;;;5.91;100.00;101372.81;6190016;23;20000;-75
2023/02/19 04:02:54;;;;;;;0.00;0.00;;;;;;;5.94;100.00;101364.25;6215991;23;20082;-74
2023/02/19 04:05:27;;;;;;;0.00;0.00;;;;;;;5.93;100.00;101365.31;6189511;23;20087;-75
2023/02/19 04:07:58;;;;;;;0.00;0.00;;;;;;;5.96;100.00;101356.75;6191174;23;20036;-74
2023/02/19 04:10:27;;;;;;;0.00;0.00;;;;;;;5.95;100.00;101357.78;6190120;23;20008;-75
2023/02/19 04:13:01;;;;;;;0.00;0.00;;;;;;;5.93;100.00;101362.59;6191395;23;20388;-73
2023/02/19 04:15:30;;;;;;;0.00;0.00;;;;;;;5.91;100.00;101365.53;6192306;23;20003;-75
2023/02/19 04:18:04;;;;;;;0.00;0.00;;;;;;;5.93;100.00;101371.56;6191394;23;20747;-75
2023/02/19 04:20:38;;;;;;;0.00;0.00;;;;;;;5.92;100.00;101378.03;6192433;23;20034;-74
2023/02/19 04:23:03;;;;;;;0.00;0.00;;;;;;;5.89;100.00;101383.88;6218373;23;20000;-74
2023/02/19 04:25:31;;;;;;;0.00;0.00;;;;;;;5.93;100.00;101395.19;6191956;23;20008;-74
2023/02/19 04:27:57;;;;;;;0.00;0.00;;;;;;;5.91;100.00;101392.66;6190358;23;20005;-75
2023/02/19 04:30:23;;;;;;;0.00;0.00;;;;;;;5.87;100.00;101390.56;6167821;23;20015;-75
2023/02/19 04:32:48;;;;;;;0.00;0.00;;;;;;;5.88;100.00;101397.69;6190770;23;21024;-75
2023/02/19 04:35:14;;;;;;;0.00;0.00;;;;;;;5.90;100.00;101404.56;6216688;23;20008;-74
2023/02/19 04:37:39;;;;;;;0.00;0.00;;;;;;;5.86;100.00;101406.03;6189491;23;20016;-74
2023/02/19 04:40:05;;;;;;;0.00;0.00;;;;;;;5.85;99.87;101406.25;6192941;23;20044;-74
2023/02/19 04:42:30;;;;;;;0.00;0.00;;;;;;;5.83;100.00;101394.78;6194466;23;20372;-74
2023/02/19 04:44:56;;;;;;;0.00;0.00;;;;;;;5.78;100.00;101398.09;6191495;23;20016;-74
2023/02/19 04:47:21;;;;;;;0.00;0.00;;;;;;;5.76;100.00;101401.00;6193352;23;20016;-75
2023/02/19 04:49:47;;;;;;;0.00;0.00;;;;;;;5.69;100.00;101393.94;6192394;23;20067;-75
2023/02/19 04:52:12;;;;;;;0.10;0.10;;;;;;;5.73;100.00;101406.88;6163463;23;20019;-74
2023/02/19 04:54:38;;;;;;;0.10;0.10;;;;;;;5.71;100.00;101408.97;6190681;23;20016;-74
2023/02/19 04:57:03;;;;;;;0.00;0.00;;;;;;;5.69;100.00;101416.47;6189482;23;20475;-75
2023/02/19 04:59:29;;;;;;;0.00;0.00;;;;;;;5.70;100.00;101418.16;6193257;23;20413;-74
2023/02/19 05:01:56;;;;;;;0.00;0.00;;;;;;;5.72;100.00;101421.50;6188301;23;20031;-74
2023/02/19 05:04:22;;;;;;;0.00;0.00;;;;;;;5.69;100.00;101423.78;6191716;23;20015;-76
2023/02/19 05:06:48;;;;;;;0.00;0.00;;;;;;;5.65;100.00;101415.25;6166144;23;20031;-74
2023/02/19 05:09:14;;;;;;;0.00;0.00;;;;;;;5.64;100.00;101419.00;6188623;23;20447;-75
2023/02/19 05:11:39;;;;;;;0.00;0.00;;;;;;;5.70;100.00;101433.59;6217638;23;20015;-74
2023/02/19 05:14:05;;;;;;;0.00;0.00;;;;;;;5.64;100.00;101440.69;6188504;23;20011;-75
2023/02/19 05:16:31;;;;;;;0.00;0.00;;;;;;;5.55;100.00;101442.78;6166744;23;20012;-75
2023/02/19 05:18:58;;;;;;;0.00;0.00;;;;;;;5.62;100.00;101447.38;6164912;23;20023;-76
2023/02/19 05:21:26;;;;;;;0.00;0.00;;;;;;;5.55;100.00;101441.97;6193831;23;20000;-75
2023/02/19 05:23:52;;;;;;;0.10;0.10;;;;;;;5.60;100.00;101451.13;6167390;23;20008;-75
2023/02/19 05:26:21;;;;;;;0.10;0.10;;;;;;;5.49;100.00;101431.91;6191277;23;20004;-74
2023/02/19 05:28:50;;;;;;;0.00;0.00;;;;;;;5.59;100.00;101449.47;6191225;23;20128;-75
2023/02/19 05:31:16;;;;;;;0.00;0.00;;;;;;;5.56;100.00;101449.88;6216453;23;20004;-74
2023/02/19 05:33:43;;;;;;;0.00;0.00;;;;;;;5.56;100.00;101449.03;6219264;23;20305;-75
2023/02/19 05:36:11;;;;;;;0.10;0.10;;;;;;;5.54;100.00;101459.28;6189485;23;20059;-75
2023/02/19 05:38:37;;;;;;;0.10;0.10;;;;;;;5.42;100.00;101448.19;6194729;23;20012;-74
2023/02/19 05:41:09;;;;;;;0.00;0.00;;;;;;;5.48;100.00;101462.81;6196210;23;20000;-74
2023/02/19 05:43:37;;;;;;;0.00;0.00;;;;;;;5.48;100.00;101457.41;6195615;23;20451;-74
2023/02/19 05:46:02;;;;;;;0.10;0.10;;;;;;;5.50;100.00;101449.88;6218877;23;20016;-74
2023/02/19 05:48:28;;;;;;;0.00;0.00;;;;;;;5.42;100.00;101421.91;6162464;23;20598;-74
2023/02/19 05:51:03;;;;;;;0.00;0.00;;;;;;;5.40;100.00;101437.56;6216894;23;20009;-74
2023/02/19 05:53:31;;;;;;;0.00;0.00;;;;;;;5.45;100.00;101449.63;6188953;23;19992;-74
2023/02/19 05:55:59;;;;;;;0.00;0.00;;;;;;;5.48;100.00;101468.25;6192239;23;20120;-73
2023/02/19 05:58:25;;;;;;;0.00;0.00;;;;;;;5.37;100.00;101451.53;6218172;23;20002;-74
2023/02/19 06:00:50;;;;;;;0.00;0.00;;;;;;;5.50;100.00;101477.00;6211335;23;20035;-75
2023/02/19 06:03:16;;;;;;;0.00;0.00;;;;;;;5.47;100.00;101466.56;6192241;23;20009;-74
2023/02/19 06:05:41;;;;;;;0.00;0.00;;;;;;;5.49;100.00;101454.47;6213771;23;20015;-74
2023/02/19 06:08:07;;;;;;;0.00;0.00;;;;;;;5.50;100.00;101455.28;6167272;23;20652;-74
2023/02/19 06:10:33;;;;;;;0.00;0.00;;;;;;;5.53;100.00;101466.56;6163974;23;20017;-75
2023/02/19 06:12:58;;;;;;;0.00;0.00;;;;;;;5.52;100.00;101469.47;6192293;23;20004;-73
2023/02/19 06:15:24;;;;;;;0.10;0.10;;;;;;;5.47;100.00;101466.56;6219148;23;20087;-74
2023/02/19 06:17:49;;;;;;;0.00;0.00;;;;;;;5.46;100.00;101470.31;6190033;23;20052;-74
2023/02/19 06:20:15;;;;;;;0.00;0.00;;;;;;;5.39;100.00;101476.56;6167016;23;20067;-74
2023/02/19 06:22:40;;;;;;;0.10;0.10;;;;;;;5.38;100.00;101476.78;6189486;23;20004;-74
2023/02/19 06:25:10;;;;;;;0.00;0.00;;;;;;;5.39;100.00;101479.28;6192417;23;20514;-76
2023/02/19 06:27:36;;;;;;;0.08;0.08;;;;;;;5.40;100.00;101472.81;6187707;23;20505;-74
2023/02/19 06:30:01;;;;;;;0.00;0.00;;;;;;;5.38;100.00;101474.88;6191523;23;20012;-75
2023/02/19 06:32:27;;;;;;;0.00;0.00;;;;;;;5.37;100.00;101494.94;6192925;23;20663;-75
2023/02/19 06:34:53;;;;;;;0.05;0.05;;;;;;;5.40;100.00;101510.81;6186759;23;20007;-75
2023/02/19 06:37:18;;;;;;;0.00;0.00;;;;;;;5.36;100.00;101509.53;6165808;23;20016;-76
2023/02/19 06:39:43;;;;;;;0.00;0.00;;;;;;;5.34;100.00;101514.31;6187016;23;20000;-75
2023/02/19 06:42:10;;;;;;;0.00;0.00;;;;;;;5.31;100.00;101503.88;6166180;23;20012;-76
2023/02/19 06:44:36;;;;;;;0.00;0.00;;;;;;;5.28;100.00;101485.31;6182764;23;20017;-77
2023/02/19 06:47:03;;;;;;;0.10;0.10;;;;;;;5.32;100.00;101496.59;6160372;23;20135;-78
2023/02/19 06:49:28;;;;;;;0.00;0.00;;;;;;;5.26;100.00;101500.94;6159671;23;20016;-76
2023/02/19 06:51:53;;;;;;;0.00;0.00;;;;;;;5.27;100.00;101510.78;6132434;23;20009;-74
2023/02/19 06:54:19;;;;;;;0.00;0.00;;;;;;;5.11;100.00;101494.84;6111143;23;20032;-74
2023/02/19 06:56:44;;;;;;;0.00;0.00;;;;;;;5.25;100.00;101515.53;6135512;23;20002;-73
2023/02/19 06:59:12;;;;;;;0.00;0.00;;;;;;;5.13;100.00;101519.91;6108581;23;20048;-75
2023/02/19 07:01:39;;;;;;;0.00;0.00;;;;;;;5.02;100.00;101527.56;6186212;23;20005;-75
2023/02/19 07:04:06;;;;;;;0.00;0.00;;;;;;;4.99;100.00;101519.00;6156357;23;20005;-75
2023/02/19 07:06:32;;;;;;;0.00;0.00;;;;;;;5.01;100.00;101528.59;6162298;23;20009;-76
2023/02/19 07:08:58;;;;;;;0.00;0.00;;;;;;;5.03;100.00;101529.22;6183665;23;19997;-75
2023/02/19 07:11:25;;;;;;;0.00;0.00;;;;;;;4.97;100.00;101521.09;6138129;23;20005;-77
2023/02/19 07:13:55;;;;;;;0.00;0.00;;;;;;;4.94;100.00;101527.75;6185309;23;19981;-77
2023/02/19 07:16:21;;;;;;;0.00;0.00;;;;;;;4.93;100.00;101546.91;6135216;23;20054;-76
2023/02/19 07:18:46;;;;;;;0.00;0.00;;;;;;;4.88;100.00;101539.41;6181837;23;20594;-76
2023/02/19 07:21:14;;;;;;;0.00;0.00;;;;;;;4.86;100.00;101536.03;6133691;23;20423;-75
2023/02/19 07:23:40;;;;;;;0.00;0.00;;;;;;;4.82;100.00;101530.19;6180821;23;20008;-76
2023/02/19 07:26:11;;;;;;;0.00;0.00;;;;;;;4.83;100.00;101533.72;6110687;23;20017;-76
2023/02/19 07:28:38;;;;;;;0.00;0.00;;;;;;;4.82;100.00;101534.75;6184854;23;20013;-76
2023/02/19 07:31:04;;;;;;;0.00;0.00;;;;;;;4.80;100.00;101536.84;6185750;23;20005;-76
2023/02/19 07:33:29;;;;;;;0.10;0.10;;;;;;;4.83;100.00;101548.13;6136182;23;20325;-76
2023/02/19 07:35:55;;;;;;;0.00;0.00;;;;;;;4.95;100.00;101556.53;6157299;23;20020;-77
2023/02/19 07:38:22;;;;;;;0.00;0.00;;;;;;;5.04;100.00;101562.63;6111439;23;20032;-77
2023/02/19 07:41:05;;;;;;;0.00;0.00;;;;;;;5.26;100.00;101568.75;6136056;23;20074;-76
2023/02/19 07:43:36;;;;;;;0.00;0.00;;;;;;;5.55;100.00;101570.31;6189880;23;20013;-76
2023/02/19 07:46:07;;;;;;;0.00;0.00;;;;;;;5.67;100.00;101559.69;6162124;23;20021;-75
2023/02/19 07:48:36;;;;;;;0.00;0.00;;;;;;;5.91;100.00;101571.00;6189576;23;20012;-76
2023/02/19 07:51:03;;;;;;;0.00;0.00;;;;;;;6.01;98.69;101571.47;6163316;23;20001;-76
2023/02/19 07:53:31;;;;;;;0.00;0.00;;;;;;;6.29;97.22;101541.41;6159952;23;20005;-75
2023/02/19 07:56:27;;;;;;;0.00;0.00;;;;;;;6.84;94.22;101564.72;6190384;23;20448;-75
2023/02/19 07:58:52;;;;;;;0.00;0.00;;;;;;;6.69;91.91;101545.06;6189065;23;20060;-75
2023/02/19 08:04:10;;;;;;;0.00;0.00;;;;;;;6.50;92.86;101538.63;6189953;23;20031;-76
2023/02/19 08:07:01;;;;;;;0.00;0.00;;;;;;;6.41;94.01;101517.13;6163753;23;20001;-76
2023/02/19 08:09:43;;;;;;;0.00;0.00;;;;;;;6.59;93.27;101545.53;6163596;23;21062;-75
2023/02/19 08:14:54;;;;;;;0.00;0.00;;;;;;;6.93;92.84;101578.91;6171660;23;20020;-76
2023/02/19 08:17:33;;;;;;;;;;;;;;;;;;;;;
2023/02/19 08:19:58;;;;;;;0.00;0.00;;;;;;;7.13;91.48;101573.41;6196396;23;20037;-76
2023/02/19 08:22:39;;;;;;;;;;;;;;;;;;;;;
2023/02/19 08:25:18;;;;;;;;;;;;;;;;;;;;;
2023/02/19 08:28:03;;;;;;;;;;;;;;;;;;;;;
2023/02/19 08:30:43;;;;;;;;;;;;;;;;;;;;;
2023/02/19 08:33:29;;;;;;;;;;;;;;;;;;;;;
2023/02/19 08:36:46;;;;;;;;;;;;;;;;;;;;;
2023/02/19 08:39:51;;;;;;;;;;;;;;;;;;;;;
2023/02/19 08:42:37;;;;;;;0.00;0.00;;;;;;;9.15;82.83;101574.38;6177690;23;20033;-74
2023/02/19 08:45:09;;;;;;;0.00;0.00;;;;;;;9.96;77.08;101602.28;6160034;23;20028;-74
2023/02/19 08:50:35;;;;;;;0.00;0.00;;;;;;;13.22;68.08;101635.03;6167924;23;20047;-74
2023/02/19 08:53:08;;;;;;;0.00;0.00;;;;;;;14.22;63.86;101620.22;6161791;23;20000;-75
2023/02/19 08:55:41;;;;;;;0.00;0.00;;;;;;;14.97;57.98;101631.28;6160206;23;20024;-75
2023/02/19 08:58:07;;;;;;;0.00;0.00;;;;;;;13.86;59.24;101628.97;6162821;23;20024;-76
2023/02/19 09:00:32;;;;;;;0.00;0.00;;;;;;;13.16;62.37;101598.44;6187998;23;20008;-76
2023/02/19 09:03:01;;;;;;;0.00;0.00;;;;;;;13.58;61.63;101643.75;6113388;23;20424;-74
2023/02/19 09:06:18;;;;;;;0.00;0.00;;;;;;;12.53;62.45;101645.28;6160762;23;19997;-75
2023/02/19 09:08:43;;;;;;;0.00;0.00;;;;;;;11.83;65.14;101619.91;6154735;23;20424;-77
2023/02/19 09:11:11;;;;;;;0.00;0.00;;;;;;;12.01;65.54;101646.28;6163026;23;20016;-75
2023/02/19 09:13:37;;;;;;;0.00;0.00;;;;;;;12.37;65.39;101641.44;6162429;23;19997;-75
2023/02/19 09:16:04;;;;;;;0.00;0.00;;;;;;;12.67;63.90;101629.31;6158596;23;20030;-76
2023/02/19 09:18:29;;;;;;;0.00;0.00;;;;;;;12.73;63.51;101625.56;6161873;23;20001;-76
2023/02/19 09:20:59;;;;;;;0.00;0.00;;;;;;;13.26;61.83;101630.72;6133156;23;20594;-76
2023/02/19 09:23:24;;;;;;;0.00;0.00;;;;;;;13.77;60.49;101639.59;6159597;23;20023;-75
2023/02/19 09:25:56;;;;;;;0.00;0.00;;;;;;;14.11;58.51;101650.38;6136182;23;20028;-76
2023/02/19 09:28:21;;;;;;;0.00;0.00;;;;;;;14.01;58.08;101657.72;6137426;23;20103;-75
2023/02/19 09:30:47;;;;;;;0.00;0.00;;;;;;;14.51;57.28;101677.72;6111296;23;20024;-75
2023/02/19 09:33:12;;;;;;;0.00;0.00;;;;;;;15.23;55.51;101689.28;6112338;23;20068;-76
2023/02/19 09:35:41;;;;;;;0.00;0.00;;;;;;;16.04;53.25;101688.00;6162063;23;20028;-75
2023/02/19 09:38:09;;;;;;;0.00;0.00;;;;;;;16.19;52.48;101681.69;6136598;23;20004;-76
2023/02/19 09:40:36;;;;;;;0.00;0.00;;;;;;;15.99;51.90;101674.19;6114140;23;20009;-73
2023/02/19 09:43:06;;;;;;;0.00;0.00;;;;;;;16.31;52.24;101682.25;6135663;23;20012;-73
2023/02/19 09:45:34;;;;;;;0.00;0.00;;;;;;;16.56;51.47;101684.22;6160317;23;20031;-74
2023/02/19 09:48:00;;;;;;;0.00;0.00;;;;;;;16.84;49.98;101690.28;6162714;23;20012;-76
2023/02/19 09:50:33;;;;;;;0.00;0.00;;;;;;;17.31;49.59;101682.75;6110488;23;20043;-80
2023/02/19 09:53:03;;;;;;;0.00;0.00;;;;;;;18.14;48.29;101677.69;6191190;23;20067;-78
2023/02/19 09:55:39;;;;;;;0.00;0.00;;;;;;;18.85;45.75;101697.63;6161838;23;20036;-77
2023/02/19 09:58:24;;;;;;;0.00;0.00;;;;;;;20.07;43.00;101687.41;6167066;23;20008;-77
2023/02/19 10:01:11;;;;;;;0.00;0.00;;;;;;;21.91;39.99;101680.47;6164407;23;20085;-84
2023/02/19 10:03:48;;;;;;;0.00;0.00;;;;;;;24.55;36.73;101697.28;6164944;23;20009;-79
2023/02/19 10:06:24;;;;;;;0.00;0.00;;;;;;;24.30;33.15;101690.53;6143874;23;20009;-80
2023/02/19 10:09:20;;;;;;;0.00;0.00;;;;;;;22.24;34.97;101685.00;6165643;23;20376;-78
2023/02/19 10:11:57;;;;;;;0.00;0.00;;;;;;;21.18;38.00;101693.38;6165706;23;19997;-76
2023/02/19 10:15:06;;;;;;;;;;;;;;;;;;;;;
2023/02/19 10:17:37;;;;;;;0.00;0.00;;;;;;;23.99;34.67;101683.97;6188327;23;20040;-79
2023/02/19 10:20:41;;;;;;;0.00;0.00;;;;;;;23.39;32.92;101673.44;6141458;23;20032;-80
2023/02/19 10:23:46;;;;;;;0.00;0.00;;;;;;;21.27;35.43;101685.94;6165429;23;20012;-81
2023/02/19 10:26:34;;;;;;;;;;;;;;;;;;;;;
2023/02/19 10:29:00;;;;;;;0.00;0.00;;;;;;;22.01;37.81;101682.19;6195810;23;20032;-81
2023/02/19 10:31:58;;;;;;;;;;;;;;;;;;;;;
2023/02/19 10:34:36;;;;;;;;;;;;;;;;;;;;;
2023/02/19 10:37:42;;;;;;;0.00;0.00;;;;;;;26.02;31.86;101725.09;6167916;23;20039;-81
2023/02/19 10:40:02;;;;;;;0.00;0.00;;;;;;;28.04;30.25;101716.13;6180927;23;19997;-82
2023/02/19 10:43:09;;;;;;;0.00;0.00;;;;;;;30.40;27.38;101730.25;6165745;23;20016;-82
2023/02/19 10:45:46;;;;;;;0.00;0.00;;;;;;;31.66;24.95;101721.28;6131339;23;20013;-80
2023/02/19 10:48:24;;;;;;;0.00;0.00;;;;;;;33.07;24.76;101723.03;6198520;23;20001;-82
2023/02/19 10:51:20;;;;;;;0.00;0.00;;;;;;;32.88;22.67;101713.59;6175845;23;20065;-81
2023/02/19 10:54:51;;;;;;;;;;;;;;;;;;;;;
2023/02/19 10:57:30;;;;;;;;;;;;;;;;;;;;;
2023/02/19 11:00:44;;;;;;;0.00;0.00;;;;;;;38.12;20.21;101706.22;6192746;23;20448;-82
2023/02/19 11:04:06;;;;;;;;;;;;;;;;;;;;;
2023/02/19 11:06:37;;;;;;;0.00;0.00;;;;;;;40.98;15.88;101708.44;6166740;23;20029;-81
2023/02/19 11:12:57;;;;;;;0.00;0.00;;;;;;;42.79;15.45;101702.06;6175251;23;20009;-83
2023/02/19 11:16:17;;;;;;;;;;;;;;;;;;;;;
2023/02/19 11:19:31;;;;;;;;;;;;;;;;;;;;;
2023/02/19 11:22:45;;;;;;;0.00;0.00;;;;;;;39.60;13.47;101675.38;6160125;23;20035;-83
2023/02/19 11:25:25;;;;;;;0.00;0.00;;;;;;;39.67;12.94;101692.41;6194299;23;20013;-84
2023/02/19 11:28:18;;;;;;;0.00;0.00;;;;;;;39.59;14.16;101668.06;6193398;23;20009;-84
2023/02/19 11:30:46;;;;;;;0.00;0.00;;;;;;;39.48;13.02;101650.25;6127972;23;20066;-82
2023/02/19 11:36:24;;;;;;;0.00;0.00;;;;;;;38.91;13.69;101672.91;6181295;23;20013;-83
2023/02/19 11:39:12;;;;;;;0.00;0.00;;;;;;;39.16;13.54;101668.81;6195854;23;19997;-84
2023/02/19 11:42:42;;;;;;;;;;;;;;;;;;;;;
2023/02/19 11:45:43;;;;;;;0.00;0.00;;;;;;;40.81;13.11;101676.84;6076481;23;20057;-85
2023/02/19 11:48:37;;;;;;;0.00;0.00;;;;;;;41.27;13.78;101678.97;6079192;23;20027;-84
2023/02/19 12:02:11;;;;;;;0.00;0.00;;;;;;;40.47;12.98;101674.41;6103901;23;20037;-83
2023/02/19 12:05:35;;;;;;;;;;;;;;;;;;;;;
2023/02/19 12:09:11;;;;;;;;;;;;;;;;;;;;;
2023/02/19 12:12:16;;;;;;;0.00;0.00;;;;;;;39.36;13.12;101646.78;6189100;23;19997;-75
2023/02/19 12:18:58;;;;;;;;;;;;;;;;;;;;;
2023/02/19 12:22:16;;;;;;;;;;;;;;;;;;;;;
2023/02/19 12:25:26;;;;;;;0.00;0.00;;;;;;;37.98;14.36;101650.16;6069290;23;20031;-79
2023/02/19 12:28:45;;;;;;;;;;;;;;;;;;;;;
2023/02/19 12:31:33;;;;;;;0.00;0.00;;;;;;;37.43;14.30;101637.72;6070165;23;20053;-76
2023/02/19 12:34:59;;;;;;;0.00;0.00;;;;;;;35.87;15.19;101614.38;6048988;23;20011;-78
2023/02/19 12:38:04;;;;;;;0.00;0.00;;;;;;;35.62;16.19;101625.84;6135181;23;20012;-75
2023/02/19 12:40:51;;;;;;;0.00;0.00;;;;;;;35.44;16.34;101620.19;6166987;23;20005;-75
2023/02/19 12:43:23;;;;;;;0.00;0.00;;;;;;;34.97;16.33;101614.53;6173468;23;20016;-78
2023/02/19 12:46:12;;;;;;;0.00;0.00;;;;;;;35.37;16.62;101605.97;6203437;23;20004;-78
2023/02/19 12:48:51;;;;;;;0.00;0.00;;;;;;;35.99;15.96;101610.25;6227524;23;20001;-78
2023/02/19 12:51:47;;;;;;;0.00;0.00;;;;;;;36.67;15.61;101609.84;6227318;23;20031;-77
2023/02/19 12:54:34;;;;;;;0.00;0.00;;;;;;;36.54;15.47;101585.94;6224968;23;20000;-76
2023/02/19 12:57:08;;;;;;;0.00;0.00;;;;;;;35.46;15.88;101590.13;6224380;23;20004;-77
2023/02/19 12:59:48;;;;;;;0.00;0.00;;;;;;;34.48;16.41;101585.72;6226147;23;20001;-78
2023/02/19 13:02:48;;;;;;;0.00;0.00;;;;;;;33.53;17.69;101586.56;6223284;23;20008;-77
2023/02/19 13:05:16;;;;;;;0.00;0.00;;;;;;;33.10;18.01;101574.13;6201606;23;20001;-76
2023/02/19 13:08:05;;;;;;;0.00;0.00;;;;;;;32.66;18.41;101584.28;6199922;23;20503;-78
2023/02/19 13:10:30;;;;;;;0.00;0.00;;;;;;;32.24;19.07;101574.16;6195054;23;20012;-77
2023/02/19 13:13:00;;;;;;;0.00;0.00;;;;;;;32.11;19.13;101577.25;6199126;23;20012;-77
2023/02/19 13:15:26;;;;;;;0.00;0.00;;;;;;;32.70;18.82;101579.50;6225595;23;20004;-77
2023/02/19 13:17:58;;;;;;;0.00;0.00;;;;;;;32.68;18.48;101564.91;6203293;23;20031;-76
2023/02/19 13:20:47;;;;;;;0.00;0.00;;;;;;;33.35;18.15;101557.31;6234619;23;20039;-83
2023/02/19 13:26:37;;;;;;;0.00;0.00;;;;;;;34.04;18.12;101575.44;6224592;23;20023;-77
2023/02/19 13:29:02;;;;;;;0.00;0.00;;;;;;;34.57;17.58;101568.28;6224650;23;20007;-77
2023/02/19 13:31:58;;;;;;;0.00;0.00;;;;;;;34.03;16.53;101557.59;6194485;23;20013;-75